Date,TemperatureHighF,TemperatureAvgF,TemperatureLowF,DewpointHighF,DewpointAvgF,DewpointLowF,HumidityHigh,HumidityAvg,HumidityLow,PressureMaxIn,PressureMinIn,WindSpeedMaxMPH,WindSpeedAvgMPH,GustSpeedMaxMPH,PrecipitationSumIn
2013-1-1,32.5,25.8,15.7,30.0,22.1,12.0,92,85,78,30.10,29.98,5,1,0,0.03
2013-1-2,20.2,13.5,7.5,16.0,9.9,4.0,88,85,81,30.22,30.08,7,1,0,0.00
2013-1-3,29.2,22.1,12.3,25.0,16.8,8.0,85,80,75,30.22,30.13,14,5,0,0.00
2013-1-4,28.6,22.8,15.5,24.0,17.9,11.0,84,81,79,30.25,30.18,17,8,0,0.00
2013-1-5,35.4,27.8,19.7,31.0,23.5,16.0,87,84,80,30.28,30.06,13,4,0,0.01
2013-1-6,36.2,32.2,26.5,32.0,28.4,23.0,87,85,84,30.26,29.93,14,6,0,0.01
2013-1-7,34.1,28.9,23.5,29.0,25.0,21.0,89,85,81,30.40,30.17,12,3,0,0.00
2013-1-8,39.3,31.6,25.4,33.0,26.7,21.0,85,82,77,30.25,30.15,11,2,0,0.00
2013-1-9,43.5,39.3,33.5,38.0,34.2,29.0,85,82,78,30.45,30.08,13,6,0,0.00
2013-1-10,41.3,35.4,27.0,35.0,30.7,24.0,92,83,77,30.49,30.06,4,0,0,0.00
2013-1-11,59.0,50.7,40.3,55.0,46.9,34.0,92,86,76,30.06,29.75,19,4,0,0.64
2013-1-12,60.3,53.9,49.6,56.0,50.7,46.0,93,88,85,29.92,29.66,10,3,0,1.12
2013-1-13,61.1,43.1,32.4,59.0,41.4,30.0,94,94,92,30.04,29.60,15,2,0,1.20
2013-1-14,32.1,24.2,20.4,30.0,20.8,17.0,92,87,84,30.42,30.06,10,2,0,0.00
2013-1-15,30.0,25.9,20.5,24.0,21.1,17.0,88,82,76,30.39,30.08,7,2,0,0.00
2013-1-16,34.6,29.9,24.9,29.0,25.2,22.0,89,83,77,30.08,29.87,12,5,0,0.00
2013-1-17,40.1,31.9,22.2,34.0,26.4,15.0,87,80,72,30.32,29.99,14,4,0,0.00
2013-1-18,37.6,29.2,21.1,28.0,21.9,15.0,82,75,67,30.44,30.03,25,7,0,0.00
2013-1-19,50.4,43.0,37.2,37.0,32.3,27.0,72,66,61,30.04,29.71,22,12,0,0.00
2013-1-20,44.6,26.9,19.7,36.0,17.4,11.0,73,68,62,30.17,29.70,20,6,0,0.00
2013-1-21,20.4,16.6,9.3,12.0,6.7,-2.0,71,65,60,30.17,30.02,17,6,0,0.00
2013-1-22,13.8,9.6,5.0,3.0,-0.6,-4.0,67,64,59,30.32,30.16,13,5,0,0.00
2013-1-23,19.7,14.9,8.3,13.0,5.6,-1.0,80,67,59,30.31,30.06,12,4,0,0.00
2013-1-24,21.7,16.3,7.0,14.0,9.0,2.0,85,73,64,30.58,30.07,10,2,0,0.00
2013-1-25,24.4,21.1,18.1,20.0,14.7,10.0,84,76,68,30.44,29.99,9,2,0,0.02
2013-1-26,28.1,24.3,18.4,22.0,19.5,14.0,85,82,75,30.42,30.04,6,1,0,0.00
2013-1-27,33.8,26.4,17.5,30.0,21.2,14.0,92,80,76,30.43,30.07,14,1,0,0.02
2013-1-28,49.8,44.7,34.1,47.0,42.3,30.0,94,91,86,30.08,29.88,17,6,0,0.26
2013-1-29,61.9,55.3,47.8,58.0,53.0,46.0,95,92,86,29.94,29.40,20,7,0,0.00
2013-1-30,63.9,50.6,32.4,59.0,47.4,28.0,93,89,84,29.40,29.13,20,8,0,0.59
2013-1-31,32.2,23.0,14.8,28.0,17.6,9.0,85,80,75,29.95,29.37,24,10,0,0.00
2013-2-1,15.1,12.3,7.8,8.0,6.0,2.0,78,76,74,30.32,29.96,16,8,0,0.00
2013-2-2,25.7,20.8,14.4,22.0,16.7,8.0,88,84,76,30.26,29.94,20,5,0,0.00
2013-2-3,20.9,17.5,14.9,16.0,13.7,11.0,88,85,81,30.05,29.90,12,3,0,0.00
2013-2-4,28.9,22.7,15.0,26.0,19.5,11.0,90,87,84,30.05,29.80,6,1,0,0.07
2013-2-5,31.4,25.4,15.7,29.0,22.6,13.0,91,89,83,29.95,29.79,11,2,0,0.01
2013-2-6,33.8,28.9,25.3,28.0,22.4,18.0,92,77,66,30.24,29.97,4,1,0,0.02
2013-2-7,46.4,35.5,25.3,37.0,28.9,20.0,82,77,70,30.20,29.71,6,1,0,0.01
2013-2-8,39.6,31.9,22.2,36.0,27.8,18.0,90,85,80,30.30,29.71,19,4,0,0.13
2013-2-9,35.3,27.0,17.5,27.0,21.4,14.0,87,80,70,30.41,30.21,4,0,0,0.00
2013-2-10,48.6,39.4,28.4,42.0,32.0,23.0,84,75,68,30.21,29.66,14,3,0,0.02
2013-2-11,48.0,39.1,32.6,44.0,33.3,25.0,89,80,74,29.92,29.58,21,10,0,0.00
2013-2-12,40.7,33.0,28.0,33.0,26.5,24.0,84,77,72,30.06,29.90,15,4,0,0.00
2013-2-13,37.4,30.8,27.1,31.0,26.0,23.0,85,82,77,29.89,29.72,6,1,0,0.00
2013-2-14,45.2,37.3,32.6,40.0,32.7,29.0,89,83,78,29.89,29.69,20,6,0,0.00
2013-2-15,34.9,30.0,21.9,29.0,24.6,16.0,84,80,75,30.11,29.88,9,2,0,0.00
2013-2-16,26.2,21.8,15.8,22.0,16.7,9.0,86,81,74,30.09,29.98,13,2,0,0.00
2013-2-17,27.7,20.2,13.5,18.0,13.0,9.0,83,74,62,30.20,30.06,9,2,0,0.00
2013-2-18,53.1,37.3,20.7,42.0,27.9,13.0,75,69,63,30.17,29.58,20,6,0,0.03
2013-2-19,45.0,27.0,17.5,40.0,21.5,11.0,85,80,77,30.04,29.47,23,11,0,0.07
2013-2-20,24.0,20.4,15.5,17.0,13.7,9.0,79,75,72,30.26,30.04,15,6,0,0.00
2013-2-21,27.8,23.9,21.8,21.0,17.6,16.0,78,77,73,30.34,30.14,11,2,0,0.00
2013-2-22,38.3,30.9,22.8,36.0,27.6,18.0,92,87,78,30.12,29.84,11,3,0,0.08
2013-2-23,34.5,30.9,27.6,31.0,25.9,22.0,90,82,76,29.93,29.86,11,4,0,0.00
2013-2-24,38.2,30.3,26.3,29.0,23.9,21.0,81,77,69,30.12,29.90,11,2,0,0.00
2013-2-25,43.5,32.7,22.0,33.0,26.2,19.0,89,78,65,30.17,29.97,10,2,0,0.00
2013-2-26,36.9,33.0,29.4,35.0,29.3,24.0,93,86,78,29.97,29.37,12,3,0,1.11
2013-2-27,38.4,35.3,31.6,37.0,33.4,30.0,94,93,90,29.59,29.38,17,7,0,0.31
2013-2-28,37.8,34.3,31.6,36.0,32.2,30.0,96,92,88,29.89,29.55,12,3,0,0.07
2013-3-1,33.6,30.2,26.2,31.0,26.3,21.0,91,85,80,30.05,29.89,11,3,0,0.00
2013-3-2,28.1,26.9,26.0,22.0,21.3,20.0,83,80,77,30.04,30.00,10,2,0,0.00
2013-3-3,32.9,27.4,23.7,23.0,19.9,18.0,81,73,64,30.04,29.98,12,3,0,0.00
2013-3-4,37.8,28.8,19.3,26.0,21.1,15.0,83,73,61,30.12,30.00,4,0,0,0.00
2013-3-5,35.0,32.0,28.8,29.0,27.1,25.0,90,82,70,30.04,29.62,14,4,0,0.01
2013-3-6,34.8,30.8,27.6,32.0,28.2,25.0,92,90,85,30.19,29.65,15,4,0,0.12
2013-3-7,39.1,34.4,31.1,34.0,29.9,26.0,89,83,75,30.34,30.17,7,1,0,0.00
2013-3-8,41.8,33.3,23.8,32.0,26.1,20.0,86,75,65,30.45,30.34,5,1,0,0.00
2013-3-9,48.2,38.6,28.1,39.0,32.0,23.0,84,77,68,30.36,29.95,7,1,0,0.00
2013-3-10,62.6,53.5,44.9,48.0,41.5,36.0,72,64,56,29.95,29.73,15,3,0,0.01
2013-3-11,57.5,48.9,36.4,48.0,42.6,32.0,87,79,62,29.73,29.45,19,8,0,0.42
2013-3-12,37.5,34.3,32.2,32.0,29.4,26.0,86,82,75,29.93,29.73,16,7,0,0.00
2013-3-13,33.5,29.2,25.9,29.0,23.5,19.0,84,79,74,30.24,29.90,16,5,0,0.00
2013-3-14,40.6,31.0,23.2,28.0,22.8,18.0,81,72,59,30.28,30.09,10,3,0,0.00
2013-3-15,46.7,38.1,30.2,40.0,32.9,24.0,89,81,73,30.09,29.74,11,3,0,0.18
2013-3-16,42.3,36.1,32.4,40.0,33.9,30.0,93,91,89,30.00,29.58,11,2,0,0.00
2013-3-17,33.2,31.0,28.5,30.0,25.7,23.0,89,81,77,30.17,30.00,12,4,0,0.00
2013-3-18,40.2,34.0,28.7,38.0,31.0,23.0,93,88,79,30.04,29.50,12,4,0,0.08
2013-3-19,36.0,30.6,25.0,34.0,23.5,19.0,91,75,66,29.97,29.70,22,10,0,0.01
2013-3-20,32.0,27.4,21.4,22.0,17.8,11.0,73,67,60,29.97,29.90,14,5,0,0.00
2013-3-21,31.5,24.5,17.2,23.0,16.9,11.0,80,72,66,29.96,29.90,12,2,0,0.00
2013-3-22,41.8,29.8,19.7,28.0,20.5,14.0,82,70,54,30.00,29.94,11,2,0,0.00
2013-3-23,43.6,33.2,23.8,31.0,23.9,18.0,81,69,58,30.04,29.93,6,1,0,0.00
2013-3-24,36.4,31.5,28.4,28.0,24.2,22.0,80,74,67,29.92,29.47,28,6,0,0.00
2013-3-25,33.8,31.5,29.3,32.0,29.0,24.0,93,90,80,29.87,29.41,11,4,0,0.30
2013-3-26,39.7,35.2,31.9,34.0,30.8,29.0,92,84,75,30.13,29.87,7,2,0,0.00
2013-3-27,40.9,35.2,31.6,35.0,30.5,28.0,87,83,74,30.22,30.13,10,2,0,0.00
2013-3-28,47.2,38.5,28.4,36.0,30.2,23.0,83,73,62,30.27,30.22,13,4,0,0.00
2013-3-29,52.2,39.0,28.5,36.0,29.8,24.0,86,71,51,30.27,30.15,10,1,0,0.00
2013-3-30,55.0,43.8,28.5,38.0,31.6,22.0,81,63,50,30.18,29.88,10,1,0,0.00
2013-3-31,58.7,48.5,41.5,47.0,39.1,32.0,84,70,58,29.87,29.62,16,4,0,0.01
2013-4-1,43.9,36.2,27.3,34.0,23.7,14.0,77,61,47,30.09,29.71,15,4,0,0.00
2013-4-2,43.6,31.6,22.9,25.0,18.2,11.0,74,59,41,30.23,30.08,14,2,0,0.00
2013-4-3,45.9,34.7,22.4,25.0,17.4,12.0,69,51,35,30.38,30.23,9,1,0,0.00
2013-4-4,56.8,40.9,28.5,29.0,21.6,14.0,61,48,32,30.31,29.92,6,1,0,0.00
2013-4-5,54.3,44.0,34.8,37.0,27.3,19.0,65,53,35,30.11,29.90,11,2,0,0.00
2013-4-6,59.5,47.6,35.2,37.0,28.4,19.0,62,48,40,30.17,29.76,12,3,0,0.00
2013-4-7,66.6,60.5,50.9,48.0,43.2,36.0,61,53,46,29.91,29.66,21,7,0,0.00
2013-4-8,71.8,57.6,42.0,58.0,46.7,33.0,79,67,57,29.91,29.71,23,6,0,0.15
2013-4-9,80.4,66.6,51.5,63.0,54.5,46.0,82,66,52,29.96,29.77,23,4,0,0.00
2013-4-10,67.8,56.4,45.4,63.0,51.2,43.0,91,83,65,29.83,29.71,11,2,0,1.66
2013-4-11,46.2,43.6,41.5,44.0,41.6,39.0,94,92,91,29.83,29.49,11,4,0,0.91
2013-4-12,43.4,41.4,39.6,42.0,37.7,35.0,94,87,77,29.81,29.46,16,7,0,0.11
2013-4-13,42.7,40.0,37.6,38.0,34.9,32.0,88,82,74,29.96,29.81,14,5,0,0.02
2013-4-14,63.8,49.9,37.8,51.0,41.7,32.0,84,74,63,30.03,29.81,5,1,0,0.00
2013-4-15,68.9,60.7,49.8,57.0,50.6,42.0,78,70,64,29.89,29.79,16,4,0,0.00
2013-4-16,62.0,54.9,50.1,55.0,50.5,47.0,91,85,75,30.13,29.81,9,2,0,0.73
2013-4-17,62.3,53.2,45.9,57.0,48.9,42.0,95,85,81,30.19,29.89,10,3,0,0.08
2013-4-18,79.3,63.9,48.1,68.0,58.0,42.0,89,81,66,29.92,29.51,28,5,0,0.07
2013-4-19,67.7,44.5,34.5,62.0,39.4,30.0,90,82,75,29.82,29.35,23,10,0,0.27
2013-4-20,44.6,38.3,33.2,33.0,30.0,23.0,85,73,58,30.39,29.82,14,5,0,0.02
2013-4-21,51.4,40.2,28.7,35.0,28.7,20.0,74,64,53,30.53,30.38,6,1,0,0.00
2013-4-22,67.2,50.6,32.6,45.0,36.7,27.0,83,62,41,30.37,30.08,5,0,0,0.00
2013-4-23,69.9,58.1,46.7,54.0,46.6,38.0,85,67,51,30.08,29.73,16,3,0,0.11
2013-4-24,59.6,44.5,35.9,54.0,40.4,30.0,90,85,75,30.13,29.65,14,4,0,0.73
2013-4-25,52.6,43.8,36.1,41.0,35.3,31.0,83,73,55,30.32,30.12,20,5,0,0.00
2013-4-26,61.0,48.0,33.2,42.0,36.1,29.0,85,66,45,30.40,30.29,6,1,0,0.00
2013-4-27,70.3,57.2,40.2,47.0,40.3,33.0,75,55,37,30.30,29.99,11,1,0,0.00
2013-4-28,61.0,57.7,53.7,57.0,52.2,45.0,90,82,61,29.99,29.73,11,1,0,0.43
2013-4-29,67.2,59.8,54.6,60.0,55.4,51.0,93,86,74,29.89,29.78,9,1,0,0.00
2013-4-30,78.0,64.2,51.8,63.0,55.8,49.0,92,75,56,29.97,29.87,8,1,0,0.00
2013-5-1,83.4,71.6,57.8,65.0,57.9,52.0,81,64,47,30.09,29.97,6,0,0,0.00
2013-5-2,76.1,69.0,61.4,59.0,55.2,51.0,71,62,53,30.13,30.01,5,1,0,0.00
2013-5-3,78.9,69.5,61.6,60.0,53.9,43.0,75,59,41,30.01,29.89,7,1,0,0.00
2013-5-4,74.8,66.0,58.6,49.0,46.0,42.0,60,49,40,29.95,29.87,6,1,0,0.00
2013-5-5,74.6,63.5,54.8,52.0,46.1,43.0,65,54,43,29.95,29.87,9,1,0,0.00
2013-5-6,71.4,63.5,55.2,56.0,49.0,43.0,66,60,54,29.92,29.85,5,1,0,0.00
2013-5-7,73.9,64.6,54.4,59.0,53.0,47.0,77,67,57,29.94,29.86,10,2,0,0.00
2013-5-8,78.4,65.4,52.6,59.0,53.7,47.0,84,67,47,29.92,29.84,6,0,0,0.01
2013-5-9,80.5,67.9,56.3,62.0,55.1,51.0,83,65,43,29.91,29.83,10,1,0,0.00
2013-5-10,69.1,63.7,51.7,63.0,58.1,47.0,87,82,73,29.85,29.67,11,3,0,0.28
2013-5-11,57.4,49.0,41.0,51.0,44.1,36.0,86,83,78,29.91,29.75,13,2,0,0.07
2013-5-12,51.7,44.4,37.8,38.0,34.7,29.0,84,70,54,30.07,29.91,14,2,0,0.01
2013-5-13,59.6,48.4,37.9,38.0,33.5,30.0,78,58,40,30.12,30.04,7,1,0,0.00
2013-5-14,83.7,64.2,46.3,61.0,46.9,32.0,62,54,46,30.05,29.66,18,3,0,0.00
2013-5-15,86.1,77.0,70.3,62.0,58.7,53.0,67,54,39,29.71,29.61,14,6,0,0.00
2013-5-16,82.9,71.6,58.6,56.0,51.2,46.0,73,51,31,29.86,29.69,7,0,0,0.00
2013-5-17,84.4,68.3,53.0,62.0,51.1,44.0,72,55,37,30.00,29.87,9,1,0,0.00
2013-5-18,79.8,67.2,56.8,62.0,51.1,40.0,64,57,48,30.01,29.91,5,0,0,0.00
2013-5-19,87.0,73.0,56.7,68.0,59.2,47.0,75,63,50,29.92,29.78,5,0,0,0.00
2013-5-20,88.3,77.9,68.7,72.0,66.7,62.0,84,69,54,29.85,29.73,18,3,0,0.00
2013-5-21,86.6,77.7,68.3,66.0,63.5,60.0,77,63,48,29.76,29.64,21,6,0,0.00
2013-5-22,79.3,71.3,63.8,67.0,61.5,55.0,81,72,61,29.69,29.59,20,5,0,0.05
2013-5-23,68.2,59.6,49.4,61.0,53.8,44.0,85,81,76,30.06,29.66,14,3,0,0.02
2013-5-24,64.0,53.6,45.3,46.0,42.3,36.0,84,67,46,30.26,30.06,11,2,0,0.00
2013-5-25,69.1,56.9,42.2,47.0,40.9,34.0,79,57,42,30.32,30.16,6,0,0,0.00
2013-5-26,70.8,60.0,45.7,44.0,38.7,33.0,66,47,34,30.26,30.11,4,0,0,0.00
2013-5-27,69.1,59.9,50.7,58.0,47.3,35.0,86,65,40,30.16,29.87,6,1,0,0.69
2013-5-28,81.4,71.7,59.6,71.0,64.7,56.0,90,79,67,29.88,29.78,26,5,0,0.13
2013-5-29,86.0,77.5,70.5,69.0,64.3,60.0,72,64,52,29.92,29.82,20,6,0,0.00
2013-5-30,88.2,78.7,69.9,71.0,66.0,58.0,79,66,53,29.99,29.85,28,3,0,0.03
2013-5-31,79.3,74.1,69.4,70.0,66.1,64.0,87,76,67,29.92,29.79,19,4,0,0.21
2013-6-1,77.6,70.1,62.9,70.0,65.0,59.0,92,84,74,29.88,29.64,19,2,0,1.54
2013-6-2,72.2,66.1,55.3,65.0,59.7,49.0,86,80,72,29.89,29.64,12,4,0,0.00
2013-6-3,68.3,58.8,52.0,53.0,48.3,44.0,84,70,50,30.02,29.89,6,1,0,0.00
2013-6-4,73.9,62.4,47.1,53.0,48.3,42.0,84,62,46,30.11,30.01,7,1,0,0.00
2013-6-5,79.6,65.7,53.0,58.0,49.5,43.0,71,57,44,30.06,29.83,9,1,0,0.00
2013-6-6,71.0,61.9,58.2,59.0,51.7,46.0,82,70,57,29.85,29.73,7,2,0,0.00
2013-6-7,70.7,60.9,54.0,59.0,53.8,49.0,89,78,65,29.83,29.77,7,1,0,0.00
2013-6-8,78.1,65.1,50.5,59.0,53.5,47.0,92,68,48,29.95,29.83,5,0,0,0.00
2013-6-9,83.6,72.9,63.8,68.0,60.1,54.0,81,65,48,29.97,29.80,9,1,0,0.03
2013-6-10,79.2,70.5,66.0,70.0,64.4,61.0,91,81,65,29.80,29.64,10,2,0,0.44
2013-6-11,84.4,72.6,63.5,70.0,64.8,61.0,91,77,58,29.86,29.72,12,1,0,0.00
2013-6-12,90.0,77.7,66.8,76.0,69.2,62.0,87,76,61,29.82,29.52,10,1,0,0.01
2013-6-13,77.8,69.9,65.0,64.0,60.9,55.0,91,74,53,29.83,29.42,13,3,0,0.31
2013-6-14,77.5,68.4,58.2,62.0,58.0,54.0,88,71,55,29.99,29.84,6,1,0,0.00
2013-6-15,78.8,69.2,59.7,65.0,60.1,54.0,82,73,60,30.03,29.86,10,1,0,0.01
2013-6-16,80.5,72.3,66.5,70.0,66.3,62.0,88,81,70,29.86,29.80,12,3,0,0.29
2013-6-17,85.8,75.3,66.7,74.0,66.4,63.0,93,76,54,29.86,29.77,10,1,0,0.01
2013-6-18,77.9,70.1,63.2,67.0,61.7,56.0,84,75,63,29.94,29.75,11,1,0,0.00
2013-6-19,78.4,67.3,54.6,59.0,53.5,48.0,79,63,43,30.06,29.95,6,1,0,0.00
2013-6-20,84.4,71.9,54.7,64.0,57.6,48.0,79,62,50,30.11,30.04,4,0,0,0.00
2013-6-21,87.4,77.5,65.4,66.0,60.8,57.0,75,58,41,30.11,29.95,6,1,0,0.00
2013-6-22,91.0,79.4,69.5,73.0,67.4,59.0,78,67,56,30.02,29.90,15,2,0,0.00
2013-6-23,88.5,44.9,71.2,73.0,-6.2,-99.9,83,37,55,30.01,29.90,13,-440,0,0.00
2013-6-24,86.7,52.6,69.2,72.0,9.4,-99.9,82,43,58,30.00,29.87,11,-351,0,0.05
2013-6-25,90.2,79.0,68.1,77.0,69.6,62.0,88,74,58,29.91,29.73,15,4,0,0.01
2013-6-26,85.6,73.3,68.2,75.0,67.7,63.0,90,83,69,29.82,29.65,11,1,0,0.19
2013-6-27,85.6,76.2,70.2,74.0,70.3,65.0,93,82,67,29.67,29.57,11,1,0,0.08
2013-6-28,82.9,73.0,66.7,71.0,65.8,59.0,91,79,61,29.57,29.46,12,2,0,0.02
2013-6-29,76.0,67.4,61.6,68.0,62.6,58.0,91,85,72,29.59,29.45,3,0,0,0.12
2013-6-30,75.3,68.6,63.9,67.0,62.9,60.0,91,82,69,29.81,29.60,10,2,0,0.01
2013-7-1,67.6,64.4,60.7,64.0,59.7,55.0,91,85,80,29.91,29.79,12,2,0,0.73
2013-7-2,78.8,67.8,61.6,71.0,63.7,57.0,92,86,75,29.94,29.86,10,1,0,1.09
2013-7-3,81.7,72.6,65.4,72.0,67.0,63.0,95,83,67,30.01,29.93,9,1,0,0.00
2013-7-4,77.3,72.2,67.2,70.0,67.3,64.0,91,85,77,30.05,29.98,5,0,0,0.01
2013-7-5,82.5,74.3,67.6,73.0,68.7,66.0,94,83,70,30.03,29.97,9,1,0,0.03
2013-7-6,78.4,72.3,68.9,73.0,68.7,66.0,93,88,80,30.03,29.91,6,0,0,0.10
2013-7-7,81.6,71.5,66.6,73.0,67.4,65.0,93,87,70,30.00,29.91,9,1,0,0.00
2013-7-8,82.5,74.4,68.6,76.0,70.6,66.0,93,88,77,29.99,29.90,11,2,0,1.22
2013-7-9,88.0,79.1,72.6,80.0,74.0,69.0,92,84,75,29.93,29.83,11,2,0,0.00
2013-7-10,87.3,77.6,66.7,80.0,72.0,61.0,89,83,75,29.86,29.67,16,4,0,0.19
2013-7-11,78.0,69.6,61.7,64.0,60.3,57.0,87,73,56,29.96,29.85,11,1,0,0.00
2013-7-12,80.0,68.7,58.0,66.0,60.2,55.0,90,75,59,30.05,29.95,6,1,0,0.00
2013-7-13,84.4,73.7,60.7,71.0,65.0,57.0,89,75,62,30.08,30.01,6,1,0,0.00
2013-7-14,90.1,78.8,66.6,77.0,70.9,63.0,90,77,62,30.13,30.07,4,0,0,0.00
2013-7-15,90.8,82.3,74.4,76.0,73.7,70.0,87,76,62,30.20,30.12,9,1,0,0.00
2013-7-16,92.4,83.3,73.3,78.0,74.0,70.0,89,74,59,30.23,30.15,5,0,0,0.00
2013-7-17,91.7,81.2,73.1,77.0,72.6,69.0,89,76,60,30.22,30.07,5,0,0,0.00
2013-7-18,91.9,82.9,73.2,79.0,74.2,70.0,89,76,61,30.09,29.90,12,1,0,0.00
2013-7-19,91.2,82.9,74.4,79.0,74.0,70.0,87,75,62,29.91,29.72,17,4,0,0.00
2013-7-20,83.8,76.0,69.8,76.0,70.7,66.0,91,83,75,29.81,29.67,13,3,0,2.27
2013-7-21,86.2,76.5,66.2,75.0,69.4,64.0,93,80,61,29.89,29.79,4,0,0,0.01
2013-7-22,79.8,72.6,67.4,72.0,67.7,65.0,92,84,77,29.83,29.68,4,0,0,0.17
2013-7-23,85.0,74.1,65.0,75.0,68.0,58.0,93,82,65,29.75,29.61,14,2,0,0.01
2013-7-24,72.2,64.6,55.9,58.0,54.8,50.0,82,71,59,29.95,29.76,10,2,0,0.00
2013-7-25,76.1,65.8,52.8,61.0,55.7,49.0,89,71,55,30.03,29.95,6,0,0,0.00
2013-7-26,79.8,69.2,56.9,65.0,59.2,53.0,86,71,57,30.02,29.84,12,1,0,0.00
2013-7-27,77.3,67.7,57.7,69.0,61.1,52.0,90,80,61,29.86,29.69,16,2,0,0.03
2013-7-28,69.5,61.0,52.3,56.0,53.3,49.0,89,76,63,29.95,29.80,16,3,0,0.00
2013-7-29,73.5,63.2,53.2,61.0,55.2,49.0,85,76,63,30.10,29.94,9,1,0,0.00
2013-7-30,78.6,67.8,55.3,66.0,59.8,52.0,91,76,60,30.15,30.04,4,0,0,0.00
2013-7-31,75.1,69.5,66.0,68.0,64.5,61.0,93,84,77,30.03,29.84,11,1,0,0.07
2013-8-1,78.5,70.3,62.8,68.0,64.6,55.0,94,83,64,29.89,29.81,6,1,0,0.00
2013-8-2,81.1,65.6,56.9,73.0,60.9,53.0,91,84,73,29.94,29.78,10,1,0,1.25
2013-8-3,81.0,70.4,62.9,72.0,64.4,56.0,95,82,62,29.96,29.84,6,0,0,0.67
2013-8-4,76.2,66.2,55.3,62.0,57.2,52.0,89,74,57,30.09,29.95,9,1,0,0.00
2013-8-5,76.1,66.2,55.9,65.0,58.8,53.0,91,78,63,30.04,29.89,5,0,0,0.00
2013-8-6,79.8,71.7,64.4,69.0,63.9,59.0,84,77,69,29.90,29.81,12,2,0,0.00
2013-8-7,83.0,76.0,69.2,75.0,70.4,65.0,91,83,74,29.83,29.76,16,2,0,0.00
2013-8-8,75.0,71.9,69.0,70.0,68.4,66.0,92,88,85,29.88,29.80,5,1,0,0.00
2013-8-9,80.5,72.9,65.7,68.0,65.4,62.0,90,78,64,29.94,29.84,5,0,0,0.00
2013-8-10,82.8,72.3,65.3,71.0,65.8,62.0,90,80,66,30.01,29.94,7,1,0,0.00
2013-8-11,81.8,71.6,60.3,70.0,63.2,57.0,89,76,60,30.03,29.95,3,0,0,0.00
2013-8-12,84.6,73.3,63.3,72.0,66.0,60.0,90,78,65,29.99,29.76,8,1,0,0.00
2013-8-13,71.8,66.2,56.0,65.0,58.2,48.0,91,76,58,29.98,29.75,12,2,0,0.00
2013-8-14,71.5,58.9,47.6,55.0,50.2,44.0,88,74,56,30.11,29.98,7,0,0,0.00
2013-8-15,73.6,61.0,49.2,59.0,51.5,46.0,88,73,53,30.12,30.03,7,0,0,0.00
2013-8-16,76.6,66.2,56.7,61.0,55.7,50.0,83,70,56,30.10,30.05,6,0,0,0.00
2013-8-17,78.4,67.5,55.9,63.0,57.9,52.0,87,73,57,30.15,30.07,5,1,0,0.00
2013-8-18,81.2,70.0,57.5,68.0,59.4,54.0,89,71,51,30.12,30.02,6,0,0,0.00
2013-8-19,83.6,70.7,58.1,69.0,60.7,54.0,91,72,52,30.05,29.96,4,0,0,0.00
2013-8-20,86.3,73.9,61.3,71.0,63.7,57.0,89,72,54,30.08,29.99,5,0,0,0.00
2013-8-21,83.9,72.5,65.0,74.0,65.6,60.0,85,79,71,30.07,29.94,9,1,0,0.02
2013-8-22,78.9,71.6,66.3,73.0,67.2,62.0,89,86,81,30.00,29.90,9,1,0,0.06
2013-8-23,82.7,72.7,65.9,73.0,65.1,57.0,94,79,54,30.08,29.95,4,0,0,0.00
2013-8-24,84.3,70.8,55.8,65.0,58.8,52.0,88,68,49,30.21,30.09,5,0,0,0.00
2013-8-25,85.9,73.6,61.4,68.0,62.0,56.0,84,68,52,30.23,30.10,9,1,0,0.00
2013-8-26,86.2,75.0,63.7,74.0,66.0,57.0,81,74,62,30.14,29.94,13,2,0,0.00
2013-8-27,87.9,77.1,69.7,78.0,71.2,66.0,89,82,71,29.94,29.81,9,2,0,0.00
2013-8-28,87.8,80.2,74.5,78.0,72.5,69.0,84,77,70,29.89,29.75,11,2,0,0.00
2013-8-29,86.6,75.9,66.9,76.0,69.2,65.0,94,81,62,29.98,29.89,7,0,0,0.00
2013-8-30,88.3,76.7,65.6,75.0,68.6,63.0,93,77,59,29.90,29.68,11,2,0,0.00
2013-8-31,85.9,76.3,71.1,78.0,70.7,67.0,89,83,74,29.75,29.65,5,1,0,0.15
2013-9-1,78.3,72.7,67.0,72.0,68.6,64.0,92,87,81,29.72,29.66,6,1,0,0.01
2013-9-2,82.6,72.2,61.0,73.0,65.6,54.0,95,81,59,29.82,29.66,6,1,0,0.00
2013-9-3,76.9,64.4,55.7,61.0,55.7,52.0,87,74,57,29.97,29.82,8,1,0,0.00
2013-9-4,81.8,66.7,53.4,65.0,57.4,50.0,90,74,52,30.05,29.96,15,1,0,0.00
2013-9-5,79.0,66.9,57.9,61.0,53.6,45.0,86,65,38,30.14,30.02,9,1,0,0.00
2013-9-6,79.5,64.8,48.5,57.0,49.8,44.0,85,61,40,30.19,30.01,2,0,0,0.00
2013-9-7,85.8,71.9,59.5,68.0,57.9,45.0,71,62,52,30.01,29.83,9,1,0,0.00
2013-9-8,75.0,70.2,63.6,68.0,63.6,57.0,87,80,71,29.94,29.84,6,1,0,0.00
2013-9-9,91.2,74.3,59.8,75.0,64.4,54.0,86,72,55,29.95,29.82,7,1,0,0.00
2013-9-10,96.8,84.1,74.0,77.0,70.6,65.0,86,66,46,29.97,29.86,13,2,0,0.00
2013-9-11,95.0,82.2,73.1,76.0,68.1,63.0,81,64,43,30.00,29.85,15,2,0,0.00
2013-9-12,82.9,71.4,60.5,70.0,63.7,54.0,91,78,50,29.87,29.73,9,1,0,0.43
2013-9-13,62.9,56.0,49.1,55.0,47.9,41.0,86,75,59,30.05,29.87,9,1,0,0.01
2013-9-14,71.8,54.5,39.6,50.0,43.4,36.0,89,68,44,30.14,30.03,4,0,0,0.00
2013-9-15,74.2,59.8,49.4,56.0,48.7,42.0,85,68,46,30.06,29.92,5,0,0,0.30
2013-9-16,66.1,58.4,52.6,56.0,52.9,46.0,91,82,67,30.25,30.03,4,0,0,0.00
2013-9-17,72.6,58.1,44.6,56.0,47.8,42.0,90,71,48,30.29,30.12,7,0,0,0.01
2013-9-18,81.8,66.6,55.3,62.0,54.6,47.0,83,67,45,30.11,29.94,4,0,0,0.00
2013-9-19,79.5,70.1,65.2,72.0,64.4,55.0,91,83,67,29.96,29.84,7,1,0,0.11
2013-9-20,84.5,72.4,67.1,74.0,68.2,64.0,92,87,69,29.86,29.67,13,2,0,0.71
2013-9-21,71.5,63.5,51.7,65.0,56.9,45.0,93,80,58,29.81,29.63,12,2,0,0.29
2013-9-22,66.0,54.7,45.1,51.0,45.8,42.0,90,73,56,29.98,29.81,6,0,0,0.00
2013-9-23,66.3,54.0,43.0,53.0,45.6,40.0,92,74,58,30.09,29.98,5,0,0,0.00
2013-9-24,70.3,56.6,44.7,54.0,47.4,41.0,89,73,54,30.06,29.89,5,0,0,0.00
2013-9-25,73.4,60.0,49.9,59.0,51.4,46.0,89,75,54,29.91,29.82,8,1,0,0.00
2013-9-26,78.4,61.1,46.5,64.0,52.2,44.0,93,75,48,30.03,29.88,6,1,0,0.01
2013-9-27,78.2,62.0,45.3,62.0,51.2,41.0,88,70,47,30.12,30.03,9,1,0,0.00
2013-9-28,81.4,65.8,49.6,63.0,53.5,46.0,89,67,45,30.09,29.94,9,0,0,0.00
2013-9-29,64.7,62.5,59.9,61.0,57.0,52.0,93,82,63,29.95,29.87,11,1,0,0.34
2013-9-30,73.5,63.2,57.3,65.0,59.2,56.0,95,87,70,29.95,29.84,7,0,0,0.00
2013-10-1,75.2,65.6,58.1,68.0,60.4,56.0,94,84,70,29.97,29.90,14,2,0,0.02
2013-10-2,81.4,69.8,61.5,72.0,63.8,58.0,92,82,66,30.02,29.93,10,1,0,0.00
2013-10-3,79.6,70.7,65.3,73.0,65.9,62.0,93,85,72,29.95,29.86,15,2,0,0.62
2013-10-4,83.1,70.9,66.3,73.0,66.3,63.0,92,86,71,29.95,29.88,14,2,0,0.22
2013-10-5,79.6,71.1,66.2,73.0,67.7,64.0,94,88,77,29.95,29.77,9,1,0,0.05
2013-10-6,70.1,63.5,52.7,67.0,61.3,49.0,94,92,88,29.79,29.58,12,2,0,0.52
2013-10-7,60.2,51.3,44.7,51.0,46.0,41.0,90,82,71,30.08,29.70,14,3,0,0.00
2013-10-8,70.3,55.5,42.7,57.0,46.8,41.0,94,75,49,30.22,30.08,4,0,0,0.01
2013-10-9,73.3,58.3,45.2,56.0,47.2,41.0,87,69,47,30.20,30.10,5,0,0,0.00
2013-10-10,74.9,58.7,42.8,56.0,46.3,39.0,89,66,42,30.14,30.02,2,0,0,0.00
2013-10-11,78.7,60.9,45.4,58.0,49.4,41.0,89,68,45,30.06,29.96,4,0,0,0.00
2013-10-12,79.1,64.2,49.6,63.0,55.2,46.0,90,74,57,30.02,29.93,6,0,0,0.00
2013-10-13,70.9,62.1,50.7,58.0,50.6,40.0,86,68,44,30.26,30.02,6,1,0,0.00
2013-10-14,67.5,50.8,40.1,50.0,41.9,36.0,87,73,53,30.30,30.16,7,0,0,0.00
2013-10-15,65.6,56.9,46.9,61.0,52.4,42.0,90,85,77,30.15,29.82,7,1,0,0.05
2013-10-16,63.4,58.0,45.0,61.0,51.8,40.0,91,80,63,29.88,29.77,11,2,0,0.00
2013-10-17,51.3,46.7,41.6,48.0,43.3,38.0,90,87,83,29.87,29.77,10,2,0,0.11
2013-10-18,64.3,51.7,42.8,54.0,44.5,38.0,90,78,58,29.90,29.81,16,4,0,0.00
2013-10-19,51.3,44.6,41.8,45.0,39.7,36.0,90,83,73,29.89,29.76,12,3,0,0.26
2013-10-20,62.9,51.2,41.6,48.0,41.7,36.0,81,71,58,29.90,29.83,15,5,0,0.00
2013-10-21,60.8,51.9,41.4,49.0,43.7,35.0,83,74,65,29.86,29.77,13,4,0,0.02
2013-10-22,50.2,39.9,31.4,35.0,30.6,26.0,83,71,49,29.94,29.84,14,3,0,0.07
2013-10-23,43.6,38.4,35.7,39.0,34.6,32.0,90,86,82,29.95,29.76,5,1,0,0.07
2013-10-24,45.1,37.9,33.8,37.0,32.4,30.0,86,80,72,30.18,29.94,9,2,0,0.02
2013-10-25,48.7,37.9,28.7,40.0,30.2,25.0,86,75,58,30.34,30.16,9,2,0,0.00
2013-10-26,51.1,43.0,36.9,40.0,32.9,28.0,74,68,64,30.15,29.81,25,7,0,0.00
2013-10-27,54.4,42.9,35.5,42.0,34.5,30.0,86,73,54,30.04,29.96,14,2,0,0.00
2013-10-28,59.0,44.5,33.0,44.0,35.8,29.0,87,73,54,30.28,30.02,4,0,0,0.00
2013-10-29,57.2,46.1,34.6,47.0,39.2,31.0,88,77,64,30.34,30.16,2,0,0,0.00
2013-10-30,64.7,53.6,41.9,59.0,48.2,37.0,89,82,73,30.15,29.87,10,1,0,0.00
2013-10-31,63.9,61.4,59.1,61.0,58.6,57.0,92,90,86,29.87,29.14,22,5,0,1.12
2013-11-1,59.3,50.6,46.8,57.0,46.5,43.0,92,85,79,29.64,29.20,19,7,0,0.01
2013-11-2,49.0,46.1,44.0,45.0,42.6,41.0,90,87,82,30.01,29.63,10,2,0,0.07
2013-11-3,50.1,43.5,38.1,43.0,38.7,34.0,90,83,72,30.33,30.01,7,1,0,0.02
2013-11-4,53.8,45.4,37.8,43.0,37.7,34.0,85,75,63,30.36,30.23,7,1,0,0.00
2013-11-5,58.7,52.3,46.3,51.0,45.2,40.0,82,77,71,30.31,30.11,11,1,0,0.00
2013-11-6,57.7,53.9,43.9,54.0,47.3,41.0,89,78,67,30.10,29.82,17,6,0,0.17
2013-11-7,47.3,42.4,36.7,41.0,35.7,31.0,89,78,63,30.15,29.96,11,2,0,0.00
2013-11-8,46.1,38.4,31.2,37.0,31.7,28.0,88,77,65,30.29,30.12,9,1,0,0.00
2013-11-9,59.8,49.3,39.7,46.0,38.4,32.0,75,66,58,30.13,29.85,27,9,0,0.00
2013-11-10,47.8,41.6,33.4,38.0,32.6,27.0,78,71,63,30.26,29.94,12,3,0,0.00
2013-11-11,51.8,40.3,28.4,40.0,33.5,25.0,87,77,64,30.26,29.99,13,4,0,0.07
2013-11-12,33.5,28.0,20.5,27.0,22.6,16.0,88,80,74,30.55,30.28,8,2,0,0.03
2013-11-13,37.6,29.3,21.7,27.0,22.3,17.0,84,75,65,30.54,30.25,16,6,0,0.00
2013-11-14,51.4,39.7,30.2,34.0,26.9,22.0,73,61,48,30.25,30.02,17,8,0,0.00
2013-11-15,49.6,43.9,39.2,34.0,30.1,25.0,70,59,53,30.05,29.98,13,4,0,0.00
2013-11-16,58.8,50.8,41.2,54.0,45.6,34.0,85,82,71,30.03,29.75,12,4,0,0.00
2013-11-17,65.5,59.0,48.4,60.0,54.4,42.0,89,84,77,29.75,29.27,24,10,0,0.67
2013-11-18,48.5,41.3,33.6,42.0,34.9,28.0,84,78,72,30.12,29.59,15,6,0,0.00
2013-11-19,41.3,36.2,31.0,31.0,28.2,24.0,79,73,65,30.32,30.12,7,1,0,0.00
2013-11-20,47.7,37.4,28.1,37.0,29.8,23.0,82,74,65,30.34,30.16,10,1,0,0.00
2013-11-21,47.9,45.1,42.1,46.0,39.8,35.0,91,82,69,30.24,30.11,9,1,0,0.33
2013-11-22,49.3,43.4,30.1,47.0,40.8,26.0,93,90,84,30.33,30.08,14,3,0,0.04
2013-11-23,32.7,27.2,18.5,29.0,21.9,10.0,89,80,68,30.53,30.28,16,4,0,0.01
2013-11-24,25.7,20.3,15.0,18.0,13.8,9.0,81,76,71,30.62,30.45,10,2,0,0.00
2013-11-25,33.2,27.4,19.9,23.0,19.3,14.0,79,72,64,30.46,30.11,17,6,0,0.00
2013-11-26,33.7,32.1,30.3,28.0,25.6,22.0,83,77,66,30.12,29.89,12,2,0,0.00
2013-11-27,30.5,26.6,22.1,25.0,19.3,16.0,82,74,63,30.20,29.88,17,5,0,0.00
2013-11-28,31.3,27.3,21.8,21.0,19.6,17.0,83,73,64,30.38,30.20,14,3,0,0.00
2013-11-29,37.4,28.3,19.8,28.0,20.7,14.0,81,73,65,30.60,30.38,5,0,0,0.00
2013-11-30,49.3,36.6,27.3,36.0,27.6,20.0,78,70,59,30.49,30.07,8,2,0,0.00
2013-12-1,47.8,39.1,32.8,38.0,31.2,27.0,82,73,68,30.07,29.92,7,2,0,0.00
2013-12-2,39.1,34.7,30.6,35.0,30.6,26.0,89,85,82,29.92,29.79,6,1,0,0.07
2013-12-3,50.0,42.4,34.6,46.0,39.6,31.0,92,89,86,29.82,29.74,9,1,0,0.01
2013-12-4,60.7,53.0,46.1,57.0,50.0,43.0,91,89,86,29.80,29.59,10,2,0,0.00
2013-12-5,59.8,42.0,28.0,56.0,37.6,24.0,89,84,80,30.11,29.61,14,5,0,0.00
2013-12-6,30.4,28.8,25.8,26.0,24.2,20.0,88,83,79,30.36,30.08,7,2,0,0.01
2013-12-7,26.4,22.6,17.8,20.0,16.6,12.0,81,78,73,30.58,30.36,10,1,0,0.00
2013-12-8,29.6,23.8,18.4,27.0,19.1,13.0,90,82,76,30.52,29.94,13,2,0,0.00
2013-12-9,31.2,26.7,20.9,29.0,23.1,16.0,91,86,80,30.17,29.90,17,7,0,0.00
2013-12-10,26.8,20.2,12.4,19.0,13.4,7.0,80,75,69,30.25,30.02,30,7,0,0.00
2013-12-11,23.8,18.3,8.2,20.0,13.2,3.0,85,80,74,30.46,30.25,11,3,0,0.00
2013-12-12,20.8,11.3,1.3,13.0,5.2,-4.0,83,76,69,30.49,30.25,14,6,0,0.00
2013-12-13,31.7,24.4,16.0,24.0,16.7,8.0,81,72,69,30.25,30.13,12,2,0,0.00
2013-12-14,31.2,28.5,22.7,29.0,26.1,20.0,92,90,82,30.15,29.71,10,2,0,0.00
2013-12-15,25.4,19.3,11.9,23.0,15.9,8.0,90,86,82,30.07,29.81,14,5,0,0.00
2013-12-16,22.5,17.8,11.9,20.0,14.2,8.0,89,85,83,30.14,29.96,5,1,0,0.00
2013-12-17,27.8,23.8,20.7,25.0,21.4,18.0,91,90,89,30.04,29.93,12,5,0,0.00
2013-12-18,33.8,24.0,19.4,26.0,19.4,16.0,89,83,73,30.18,29.93,15,6,0,0.01
2013-12-19,44.7,40.2,34.0,39.0,33.5,26.0,81,77,71,29.96,29.83,16,5,0,0.26
2013-12-20,55.7,48.7,43.0,54.0,45.4,37.0,93,88,79,29.83,29.67,13,5,0,0.14
2013-12-21,56.2,42.2,34.2,54.0,40.5,33.0,94,93,92,29.76,29.48,11,3,0,3.14
2013-12-22,45.2,38.9,34.8,44.0,37.1,33.0,96,93,90,29.96,29.41,21,6,0,0.21
2013-12-23,34.9,28.7,19.8,32.0,25.0,13.0,90,86,76,30.32,29.96,17,6,0,0.00
2013-12-24,20.0,14.5,8.3,15.0,9.3,3.0,84,80,75,30.52,30.32,11,4,0,0.00
2013-12-25,27.7,23.1,16.3,24.0,18.6,12.0,86,82,78,30.47,30.11,14,4,0,0.00
2013-12-26,33.0,28.9,24.2,27.0,23.9,20.0,89,81,74,30.28,30.06,18,6,0,0.00
2013-12-27,44.3,36.8,30.3,37.0,30.4,24.0,81,77,73,30.31,30.13,18,6,0,0.00
2013-12-28,50.8,41.4,35.6,42.0,34.6,31.0,83,77,69,30.12,29.89,13,6,0,0.00
2013-12-29,45.3,37.8,27.5,37.0,31.1,23.0,82,77,73,29.98,29.67,14,4,0,0.00
2013-12-30,26.8,23.5,20.0,22.0,16.9,13.0,83,76,70,30.20,29.98,12,4,0,0.00
2013-12-31,21.9,18.9,14.5,15.0,13.5,9.0,83,79,76,30.32,30.09,13,5,0,0.00
2014-1-1,24.6,21.0,19.1,20.0,17.1,15.0,92,85,81,30.29,30.06,10,3,0,0.00
2014-1-2,20.7,15.1,6.1,18.0,12.2,3.0,89,88,85,30.26,29.94,15,6,0,0.00